createdAt,value
2022-12-16T00:01:11.408Z,34.70
2022-12-16T00:04:13.385Z,32.70
2022-12-16T00:07:15.299Z,33.90
2022-12-16T00:10:20.282Z,34.15
2022-12-16T00:13:22.261Z,35.40
2022-12-16T00:16:25.630Z,33.83
2022-12-16T00:19:27.676Z,34.67
2022-12-16T00:22:29.552Z,35.20
2022-12-16T00:25:31.503Z,35.95
2022-12-16T00:28:33.618Z,33.75
2022-12-16T00:31:36.965Z,34.85
2022-12-16T00:34:38.925Z,34.65
2022-12-16T00:37:40.829Z,33.58
2022-12-16T00:40:43.658Z,35.13
2022-12-16T00:43:45.509Z,34.88
2022-12-16T00:46:50.873Z,34.92
2022-12-16T00:49:52.710Z,35.92
2022-12-16T00:52:56.857Z,35.92
2022-12-16T00:56:02.933Z,34.30
2022-12-16T00:59:04.809Z,35.75
2022-12-16T01:02:08.272Z,36.80
2022-12-16T01:05:11.977Z,35.40
2022-12-16T01:08:13.900Z,36.47
2022-12-16T01:11:16.949Z,34.45
2022-12-16T01:14:18.879Z,35.17
2022-12-16T01:17:22.219Z,35.55
2022-12-16T01:20:24.201Z,33.60
2022-12-16T01:23:26.404Z,33.63
2022-12-16T01:26:28.332Z,32.78
2022-12-16T01:29:30.258Z,32.10
2022-12-16T01:32:36.499Z,32.83
2022-12-16T01:35:55.583Z,32.35
2022-12-16T01:41:59.669Z,32.05
2022-12-16T01:45:29.805Z,32.65
2022-12-16T01:51:47.352Z,31.27
2022-12-16T01:54:56.501Z,31.67
2022-12-16T01:58:07.074Z,30.67
2022-12-16T02:01:09.283Z,30.48
2022-12-16T02:04:12.991Z,30.63
2022-12-16T02:07:14.920Z,29.33
2022-12-16T02:10:17.607Z,29.30
2022-12-16T02:13:24.600Z,28.15
2022-12-16T02:16:35.987Z,26.90
2022-12-16T02:20:10.839Z,27.92
2022-12-16T02:23:43.052Z,26.48
2022-12-16T02:27:19.603Z,25.80
2022-12-16T02:31:03.345Z,26.85
2022-12-16T02:34:25.051Z,27.70
2022-12-16T02:37:36.347Z,26.83
2022-12-16T02:40:46.084Z,26.88
2022-12-16T02:43:53.390Z,26.25
2022-12-16T02:46:56.128Z,27.23
2022-12-16T02:50:00.454Z,26.50
2022-12-16T02:53:03.530Z,26.52
2022-12-16T02:56:15.916Z,26.70
2022-12-16T02:59:24.599Z,26.85
2022-12-16T03:02:33.176Z,26.65
2022-12-16T03:05:40.568Z,28.38
2022-12-16T03:08:48.377Z,27.30
2022-12-16T03:11:52.738Z,28.25
2022-12-16T03:14:55.163Z,26.75
2022-12-16T03:18:00.329Z,27.08
2022-12-16T03:21:06.602Z,29.63
2022-12-16T03:24:11.773Z,32.10
2022-12-16T03:27:19.142Z,30.73
2022-12-16T03:30:26.620Z,29.83
2022-12-16T03:33:35.184Z,29.77
2022-12-16T03:36:41.840Z,30.85
2022-12-16T03:39:47.617Z,31.63
2022-12-16T03:42:51.389Z,29.13
2022-12-16T03:45:58.124Z,30.25
2022-12-16T03:49:00.384Z,30.52
2022-12-16T03:52:03.862Z,30.23
2022-12-16T03:55:06.087Z,29.27
2022-12-16T03:58:08.107Z,29.45
2022-12-16T04:01:10.473Z,27.63
2022-12-16T04:04:12.688Z,27.33
2022-12-16T04:07:16.183Z,27.38
2022-12-16T04:10:18.180Z,26.30
2022-12-16T04:13:20.369Z,24.75
2022-12-16T04:16:22.615Z,25.38
2022-12-16T04:19:28.636Z,24.15
2022-12-16T04:22:34.489Z,25.15
2022-12-16T04:25:37.871Z,24.27
2022-12-16T04:28:40.291Z,24.85
2022-12-16T04:31:42.239Z,25.75
2022-12-16T04:34:44.112Z,25.45
2022-12-16T04:37:48.594Z,23.00
2022-12-16T04:40:50.497Z,21.85
2022-12-16T04:43:52.648Z,22.40
2022-12-16T04:46:54.731Z,22.83
2022-12-16T04:49:56.615Z,20.65
2022-12-16T04:52:59.862Z,19.83
2022-12-16T04:56:04.964Z,20.95
2022-12-16T04:59:08.814Z,22.02
2022-12-16T05:02:10.809Z,19.65
2022-12-16T05:05:12.901Z,21.00
2022-12-16T05:08:16.131Z,21.25
2022-12-16T05:11:18.091Z,19.45
2022-12-16T05:14:20.076Z,19.88
2022-12-16T05:17:25.504Z,21.98
2022-12-16T05:20:27.509Z,20.50
2022-12-16T05:23:31.061Z,20.63
2022-12-16T05:26:33.474Z,19.27
2022-12-16T05:29:35.340Z,19.75
2022-12-16T05:32:37.265Z,18.67
2022-12-16T05:35:39.205Z,20.27
2022-12-16T05:38:42.508Z,19.67
2022-12-16T05:41:46.794Z,19.25
2022-12-16T05:44:48.687Z,20.23
2022-12-16T05:47:50.591Z,21.15
2022-12-16T05:50:52.555Z,18.85
2022-12-16T05:53:55.880Z,20.17
2022-12-16T05:56:57.785Z,19.15
2022-12-16T06:00:01.995Z,20.23
2022-12-16T06:03:04.169Z,19.17
2022-12-16T06:06:06.722Z,19.40
2022-12-16T06:09:10.044Z,18.85
2022-12-16T06:12:11.953Z,20.33
2022-12-16T06:15:14.062Z,26.40
2022-12-16T06:18:16.148Z,23.33
2022-12-16T06:21:18.096Z,19.65
2022-12-16T06:24:23.744Z,19.83
2022-12-16T06:27:25.662Z,20.98
2022-12-16T06:30:27.576Z,21.20
2022-12-16T06:33:29.574Z,20.55
2022-12-16T06:36:34.066Z,21.30
2022-12-16T06:39:37.340Z,21.80
2022-12-16T06:42:40.427Z,21.50
2022-12-16T06:45:42.603Z,19.20
2022-12-16T06:48:44.579Z,17.92
2022-12-16T06:51:46.556Z,18.48
2022-12-16T06:54:49.805Z,18.35
2022-12-16T06:57:57.347Z,18.83
2022-12-16T07:00:59.289Z,21.67
2022-12-16T07:04:01.261Z,21.42
2022-12-16T07:07:03.367Z,20.25
2022-12-16T07:10:08.889Z,18.08
2022-12-16T07:13:10.761Z,18.15
2022-12-16T07:16:12.913Z,17.35
2022-12-16T07:19:15.465Z,19.30
2022-12-16T07:22:17.368Z,19.25
2022-12-16T07:25:20.672Z,20.55
2022-12-16T07:28:25.832Z,19.70
2022-12-16T07:31:27.847Z,19.92
2022-12-16T07:34:29.882Z,19.42
2022-12-16T07:37:31.792Z,20.30
2022-12-16T07:40:35.274Z,19.83
2022-12-16T07:43:37.233Z,20.38
2022-12-16T07:46:39.148Z,21.48
2022-12-16T07:49:41.051Z,20.45
2022-12-16T07:52:43.907Z,21.08
2022-12-16T07:55:51.543Z,22.27
2022-12-16T07:58:55.419Z,21.45
2022-12-16T08:01:57.547Z,23.23
2022-12-16T08:04:59.714Z,22.05
2022-12-16T08:08:04.224Z,24.15
2022-12-16T08:11:08.780Z,25.05
2022-12-16T08:14:11.943Z,23.35
2022-12-16T08:17:13.887Z,24.10
2022-12-16T08:20:16.098Z,24.35
2022-12-16T08:23:18.085Z,22.60
2022-12-16T08:26:21.651Z,22.33
2022-12-16T08:32:45.417Z,22.02
2022-12-16T08:35:47.409Z,21.67
2022-12-16T08:38:49.289Z,22.67
2022-12-16T08:41:52.612Z,21.88
2022-12-16T08:44:54.762Z,21.58
2022-12-16T08:47:56.664Z,21.38
2022-12-16T08:51:01.153Z,20.90
2022-12-16T08:54:03.071Z,21.63
2022-12-16T08:57:06.343Z,20.70
2022-12-16T09:00:09.443Z,20.88
2022-12-16T09:03:11.569Z,21.33
2022-12-16T09:06:13.726Z,21.38
2022-12-16T09:09:15.679Z,21.10
2022-12-16T09:12:19.214Z,20.30
2022-12-16T09:15:21.147Z,20.75
2022-12-16T09:18:23.054Z,21.70
2022-12-16T09:21:27.711Z,21.80
2022-12-16T09:24:33.871Z,20.20
2022-12-16T09:27:37.328Z,22.15
2022-12-16T09:30:42.403Z,22.52
2022-12-16T09:33:44.372Z,21.63
2022-12-16T09:36:46.421Z,20.48
2022-12-16T09:39:48.952Z,22.05
2022-12-16T09:43:31.405Z,21.88
2022-12-16T09:47:08.220Z,21.52
2022-12-16T09:50:31.649Z,21.38
2022-12-16T09:53:56.159Z,23.17
2022-12-16T09:57:02.396Z,22.85
2022-12-16T10:00:12.649Z,21.30
2022-12-16T10:03:22.888Z,22.27
2022-12-16T10:06:42.505Z,22.55
2022-12-16T10:09:57.353Z,23.57
2022-12-16T10:13:07.453Z,22.48
2022-12-16T10:16:22.589Z,23.55
2022-12-16T10:19:38.215Z,24.00
2022-12-16T10:22:49.258Z,23.27
2022-12-16T10:26:00.466Z,25.17
2022-12-16T10:29:13.695Z,25.40
2022-12-16T10:32:22.414Z,23.70
2022-12-16T10:35:29.135Z,24.15
2022-12-16T10:38:53.364Z,23.75
2022-12-16T10:42:22.567Z,23.15
2022-12-16T10:45:48.884Z,23.63
2022-12-16T10:49:14.800Z,23.25
2022-12-16T10:52:44.329Z,23.35
2022-12-16T10:56:17.980Z,18.23
2022-12-16T10:59:42.542Z,23.02
2022-12-16T11:03:19.529Z,22.90
2022-12-16T11:06:42.892Z,22.80
2022-12-16T11:10:25.102Z,22.20
2022-12-16T11:13:34.050Z,21.42
2022-12-16T11:16:40.405Z,21.35
2022-12-16T11:20:07.642Z,22.58
2022-12-16T11:23:25.021Z,22.52
2022-12-16T11:29:57.048Z,26.95
2022-12-16T11:33:02.734Z,26.05
2022-12-16T11:36:13.692Z,24.58
2022-12-16T11:39:20.332Z,22.70
2022-12-16T11:42:27.717Z,22.25
2022-12-16T11:45:32.352Z,21.70
2022-12-16T11:48:40.878Z,22.38
2022-12-16T11:54:57.545Z,20.20
2022-12-16T11:58:09.152Z,21.65
2022-12-16T12:01:17.052Z,21.67
2022-12-16T12:04:19.831Z,22.23
2022-12-16T12:07:27.609Z,20.33
2022-12-16T12:10:45.470Z,20.08
2022-12-16T12:13:58.604Z,21.27
2022-12-16T12:17:11.073Z,21.30
2022-12-16T12:20:34.571Z,21.15
2022-12-16T12:23:51.503Z,20.65
2022-12-16T12:27:02.041Z,21.08
2022-12-16T12:30:16.626Z,14.87
2022-12-16T12:33:30.891Z,20.15
2022-12-16T12:36:44.472Z,21.45
2022-12-16T12:39:52.339Z,21.13
2022-12-16T12:42:56.887Z,20.95
2022-12-16T12:46:07.264Z,19.13
2022-12-16T12:49:16.427Z,17.80
2022-12-16T12:55:33.252Z,18.02
2022-12-16T12:58:39.152Z,17.48
2022-12-16T13:01:43.290Z,17.75
2022-12-16T13:04:47.981Z,18.45
2022-12-16T13:07:49.826Z,17.38
2022-12-16T13:11:12.296Z,17.20
2022-12-16T13:14:55.556Z,17.45
2022-12-16T13:18:20.995Z,17.38
2022-12-16T13:21:47.887Z,16.40
2022-12-16T13:24:50.921Z,16.40
2022-12-16T13:27:58.151Z,21.00
2022-12-16T13:31:05.010Z,20.77
2022-12-16T13:34:20.400Z,18.77
2022-12-16T13:37:33.646Z,18.23
2022-12-16T13:40:56.762Z,18.83
2022-12-16T13:43:59.466Z,22.58
2022-12-16T13:47:02.631Z,24.00
2022-12-16T13:50:39.039Z,25.45
2022-12-16T13:53:46.317Z,28.25
2022-12-16T13:56:49.885Z,26.80
2022-12-16T13:59:51.973Z,27.48
2022-12-16T14:02:57.672Z,28.75
2022-12-16T14:06:01.587Z,28.40
2022-12-16T14:09:04.319Z,26.83
2022-12-16T14:12:15.541Z,27.75
2022-12-16T14:15:26.811Z,31.23
2022-12-16T14:18:43.740Z,28.67
2022-12-16T14:21:53.716Z,30.42
2022-12-16T14:25:02.204Z,28.70
2022-12-16T14:28:14.701Z,26.75
2022-12-16T14:31:21.223Z,25.27
2022-12-16T14:34:25.858Z,25.40
2022-12-16T14:37:34.309Z,24.65
2022-12-16T14:40:36.128Z,25.58
2022-12-16T14:43:43.682Z,25.80
2022-12-16T14:46:50.664Z,28.27
2022-12-16T14:49:54.778Z,29.50
2022-12-16T14:53:12.745Z,29.27
2022-12-16T14:56:18.770Z,29.70
2022-12-16T14:59:21.147Z,29.27
2022-12-16T15:02:30.722Z,28.10
2022-12-16T15:05:38.081Z,28.55
2022-12-16T15:08:49.382Z,29.00
2022-12-16T15:11:55.293Z,28.52
2022-12-16T15:14:57.946Z,31.50
2022-12-16T15:18:02.506Z,30.63
2022-12-16T15:21:09.644Z,29.65
2022-12-16T15:24:17.676Z,33.22
2022-12-16T15:27:28.744Z,33.28
2022-12-16T15:30:35.806Z,34.25
2022-12-16T15:33:39.188Z,34.90
2022-12-16T15:36:45.865Z,34.55
2022-12-16T15:39:47.729Z,33.03
2022-12-16T15:42:52.694Z,33.88
2022-12-16T15:45:54.550Z,34.80
2022-12-16T15:48:56.480Z,33.53
2022-12-16T15:52:00.767Z,33.78
2022-12-16T15:55:02.629Z,34.70
2022-12-16T15:58:13.213Z,33.67
2022-12-16T16:01:18.748Z,33.17
2022-12-16T16:04:24.453Z,33.92
2022-12-16T16:07:27.727Z,33.08
2022-12-16T16:10:29.696Z,34.10
2022-12-16T16:13:31.868Z,33.33
2022-12-16T16:16:34.022Z,32.35
2022-12-16T16:19:35.810Z,31.83
2022-12-16T16:22:38.994Z,29.70
2022-12-16T16:25:40.874Z,29.65
2022-12-16T16:28:42.988Z,30.40
2022-12-16T16:31:46.670Z,29.90
2022-12-16T16:34:48.515Z,28.23
2022-12-16T16:37:51.772Z,29.10
2022-12-16T16:40:53.575Z,27.30
2022-12-16T16:43:57.000Z,28.35
2022-12-16T16:46:59.588Z,29.00
2022-12-16T16:50:02.206Z,27.60
2022-12-16T16:53:05.464Z,27.65
2022-12-16T16:56:13.791Z,28.80
2022-12-16T16:59:21.354Z,28.50
2022-12-16T17:02:24.517Z,30.40
2022-12-16T17:05:26.463Z,31.17
2022-12-16T17:08:29.634Z,28.38
2022-12-16T17:11:33.025Z,28.15
2022-12-16T17:14:34.847Z,28.15
2022-12-16T17:17:36.725Z,26.85
2022-12-16T17:20:38.542Z,27.63
2022-12-16T17:23:44.118Z,26.70
2022-12-16T17:26:45.968Z,27.95
2022-12-16T17:29:47.904Z,30.05
2022-12-16T17:32:51.586Z,33.45
2022-12-16T17:35:53.366Z,33.88
2022-12-16T17:38:56.801Z,31.60
2022-12-16T17:42:00.211Z,32.05
2022-12-16T17:45:02.132Z,28.63
2022-12-16T17:48:04.483Z,29.63
2022-12-16T17:51:06.325Z,31.90
2022-12-16T17:54:19.700Z,29.75
2022-12-16T17:57:27.344Z,26.30
2022-12-16T18:00:29.199Z,25.38
2022-12-16T18:03:31.341Z,26.73
2022-12-16T18:06:33.700Z,25.40
2022-12-16T18:09:40.799Z,27.20
2022-12-16T18:12:43.148Z,27.58
2022-12-16T18:15:52.199Z,27.83
2022-12-16T18:21:56.720Z,27.90
2022-12-16T18:25:00.446Z,28.40
2022-12-16T18:28:05.895Z,29.40
2022-12-16T18:31:07.916Z,29.40
2022-12-16T18:34:09.830Z,30.67
2022-12-16T18:37:14.620Z,30.60
2022-12-16T18:40:19.508Z,29.80
2022-12-16T18:43:24.166Z,29.23
2022-12-16T18:46:26.601Z,28.25
2022-12-16T18:49:29.223Z,29.65
2022-12-16T18:52:32.716Z,28.48
2022-12-16T18:55:37.425Z,28.27
2022-12-16T18:58:54.859Z,26.55
2022-12-16T19:01:57.302Z,29.08
2022-12-16T19:05:00.656Z,26.23
2022-12-16T19:08:02.718Z,26.20
2022-12-16T19:11:06.092Z,24.58
2022-12-16T19:14:09.456Z,27.00
2022-12-16T19:17:11.695Z,25.30
2022-12-16T19:20:13.826Z,26.63
2022-12-16T19:23:16.571Z,26.10
2022-12-16T19:26:21.984Z,24.48
2022-12-16T19:29:30.759Z,24.42
2022-12-16T19:32:35.152Z,26.88
2022-12-16T19:35:44.875Z,26.55
2022-12-16T19:38:48.606Z,27.00
2022-12-16T19:41:53.487Z,25.17
2022-12-16T19:44:59.315Z,24.87
2022-12-16T19:48:01.923Z,24.77
2022-12-16T19:51:06.444Z,24.13
2022-12-16T19:54:08.738Z,22.92
2022-12-16T19:57:14.170Z,22.17
2022-12-16T20:00:16.631Z,24.67
2022-12-16T20:03:19.521Z,25.23
2022-12-16T20:06:22.497Z,24.58
2022-12-16T20:09:25.078Z,24.17
2022-12-16T20:12:31.874Z,24.08
2022-12-16T20:15:35.028Z,25.13
2022-12-16T20:18:37.916Z,24.75
2022-12-16T20:21:42.221Z,24.25
2022-12-16T20:24:45.286Z,23.40
2022-12-16T20:27:50.132Z,22.48
2022-12-16T20:30:52.384Z,22.88
2022-12-16T20:34:02.727Z,23.83
2022-12-16T20:37:05.775Z,24.45
2022-12-16T20:40:09.675Z,23.45
2022-12-16T20:43:13.938Z,24.58
2022-12-16T20:46:16.542Z,24.42
2022-12-16T20:49:20.239Z,26.17
2022-12-16T20:52:23.101Z,26.67
2022-12-16T20:55:25.647Z,24.63
2022-12-16T20:58:29.744Z,25.92
2022-12-16T21:01:32.627Z,26.20
2022-12-16T21:04:35.001Z,25.23
2022-12-16T21:07:37.600Z,24.73
2022-12-16T21:10:39.953Z,24.08
2022-12-16T21:13:43.886Z,25.38
2022-12-16T21:16:46.532Z,24.38
2022-12-16T21:19:49.701Z,25.10
2022-12-16T21:22:59.062Z,25.23
2022-12-16T21:29:15.882Z,23.88
2022-12-16T21:32:18.111Z,25.52
2022-12-16T21:35:20.706Z,24.70
2022-12-16T21:38:23.356Z,23.45
2022-12-16T21:41:26.632Z,24.23
2022-12-16T21:44:30.330Z,24.60
2022-12-16T21:47:32.674Z,24.55
2022-12-16T21:50:35.843Z,22.80
2022-12-16T21:53:38.110Z,22.70
2022-12-16T21:56:40.507Z,22.55
2022-12-16T21:59:44.160Z,23.83
2022-12-16T22:02:46.340Z,21.27
2022-12-16T22:05:48.668Z,21.60
2022-12-16T22:08:51.777Z,22.35
2022-12-16T22:11:54.008Z,22.35
2022-12-16T22:15:00.177Z,22.48
2022-12-16T22:18:08.748Z,22.13
2022-12-16T22:21:12.008Z,21.20
2022-12-16T22:24:14.464Z,24.52
2022-12-16T22:27:16.952Z,23.80
2022-12-16T22:30:20.567Z,23.20
2022-12-16T22:33:22.765Z,22.65
2022-12-16T22:36:24.990Z,23.10
2022-12-16T22:39:27.138Z,22.25
2022-12-16T22:42:29.443Z,23.17
2022-12-16T22:45:34.216Z,22.98
2022-12-16T22:48:39.289Z,22.95
2022-12-16T22:51:42.426Z,21.23
2022-12-16T22:54:50.390Z,21.00
2022-12-16T22:57:54.233Z,20.58
2022-12-16T23:00:57.877Z,19.08
2022-12-16T23:04:00.140Z,18.83
2022-12-16T23:07:02.338Z,18.23
2022-12-16T23:10:05.311Z,18.40
2022-12-16T23:13:10.535Z,17.95
2022-12-16T23:16:15.782Z,19.52
2022-12-16T23:19:17.941Z,19.25
2022-12-16T23:22:20.169Z,17.30
2022-12-16T23:25:22.340Z,19.38
2022-12-16T23:28:24.667Z,19.38
2022-12-16T23:31:28.851Z,17.83
2022-12-16T23:34:31.476Z,17.95
2022-12-16T23:37:33.328Z,17.38
2022-12-16T23:40:35.219Z,16.90
2022-12-16T23:43:37.193Z,16.30
2022-12-16T23:46:40.676Z,16.38
2022-12-16T23:49:42.608Z,16.17
2022-12-16T23:52:44.439Z,15.55
2022-12-16T23:55:46.344Z,16.58
2022-12-16T23:58:48.374Z,16.77
